sensor_id;sensor_type;location;lat;lon;timestamp;pressure;altitude;pressure_sealevel;temperature;humidity
20455;BME280;10386;54.314;10.022;2022-10-16T00:00:30;99763.81;;;13.67;100.00
20455;BME280;10386;54.314;10.022;2022-10-16T00:02:56;99771.59;;;13.62;100.00
20455;BME280;10386;54.314;10.022;2022-10-16T00:05:23;99768.78;;;13.72;100.00
20455;BME280;10386;54.314;10.022;2022-10-16T00:07:50;99768.34;;;13.76;100.00
20455;BME280;10386;54.314;10.022;2022-10-16T00:10:17;99777.59;;;13.66;100.00
20455;BME280;10386;54.314;10.022;2022-10-16T00:12:44;99776.03;;;13.63;100.00
20455;BME280;10386;54.314;10.022;2022-10-16T00:15:10;99788.72;;;13.55;100.00
20455;BME280;10386;54.314;10.022;2022-10-16T00:17:37;99776.31;;;13.60;100.00
20455;BME280;10386;54.314;10.022;2022-10-16T00:20:04;99782.09;;;13.57;100.00
20455;BME280;10386;54.314;10.022;2022-10-16T00:22:32;99777.63;;;13.56;100.00
20455;BME280;10386;54.314;10.022;2022-10-16T00:24:59;99785.72;;;13.48;100.00
20455;BME280;10386;54.314;10.022;2022-10-16T00:27:25;99785.03;;;13.46;100.00
20455;BME280;10386;54.314;10.022;2022-10-16T00:29:52;99787.41;;;13.59;100.00
20455;BME280;10386;54.314;10.022;2022-10-16T00:32:19;99777.94;;;13.53;100.00
20455;BME280;10386;54.314;10.022;2022-10-16T00:34:46;99781.63;;;13.62;100.00
20455;BME280;10386;54.314;10.022;2022-10-16T00:37:13;99787.91;;;13.45;100.00
20455;BME280;10386;54.314;10.022;2022-10-16T00:39:40;99784.38;;;13.35;100.00
20455;BME280;10386;54.314;10.022;2022-10-16T00:42:28;99789.72;;;13.54;100.00
20455;BME280;10386;54.314;10.022;2022-10-16T00:44:56;99790.88;;;13.51;100.00
20455;BME280;10386;54.314;10.022;2022-10-16T00:47:47;99789.38;;;13.39;100.00
20455;BME280;10386;54.314;10.022;2022-10-16T00:50:28;99790.38;;;13.38;100.00
20455;BME280;10386;54.314;10.022;2022-10-16T00:52:57;99789.38;;;13.39;100.00
20455;BME280;10386;54.314;10.022;2022-10-16T00:55:26;99796.81;;;13.47;100.00
20455;BME280;10386;54.314;10.022;2022-10-16T00:57:54;99790.69;;;13.35;100.00
20455;BME280;10386;54.314;10.022;2022-10-16T01:00:23;99799.56;;;13.37;100.00
20455;BME280;10386;54.314;10.022;2022-10-16T01:02:55;99801.75;;;13.34;100.00
20455;BME280;10386;54.314;10.022;2022-10-16T01:05:25;99811.78;;;13.33;100.00
20455;BME280;10386;54.314;10.022;2022-10-16T01:08:05;99800.75;;;13.35;100.00
20455;BME280;10386;54.314;10.022;2022-10-16T01:13:13;99799.13;;;13.42;100.00
20455;BME280;10386;54.314;10.022;2022-10-16T01:15:50;99808.53;;;13.30;100.00
20455;BME280;10386;54.314;10.022;2022-10-16T01:21:02;99809.16;;;13.41;100.00
20455;BME280;10386;54.314;10.022;2022-10-16T01:29:04;99808.81;;;13.27;100.00
20455;BME280;10386;54.314;10.022;2022-10-16T01:31:36;99817.66;;;13.38;100.00
20455;BME280;10386;54.314;10.022;2022-10-16T01:34:21;99818.31;;;13.23;100.00
20455;BME280;10386;54.314;10.022;2022-10-16T01:37:02;99821.69;;;13.34;100.00
20455;BME280;10386;54.314;10.022;2022-10-16T01:39:33;99814.72;;;13.22;100.00
20455;BME280;10386;54.314;10.022;2022-10-16T01:42:06;99820.06;;;13.14;100.00
20455;BME280;10386;54.314;10.022;2022-10-16T01:44:36;99817.34;;;13.41;100.00
20455;BME280;10386;54.314;10.022;2022-10-16T01:47:05;99821.13;;;13.31;100.00
20455;BME280;10386;54.314;10.022;2022-10-16T01:49:36;99824.81;;;13.39;100.00
20455;BME280;10386;54.314;10.022;2022-10-16T01:52:11;99814.09;;;13.28;100.00
20455;BME280;10386;54.314;10.022;2022-10-16T01:54:41;99819.88;;;13.25;100.00
20455;BME280;10386;54.314;10.022;2022-10-16T01:57:10;99811.38;;;13.28;100.00
20455;BME280;10386;54.314;10.022;2022-10-16T01:59:42;99821.28;;;13.29;100.00
20455;BME280;10386;54.314;10.022;2022-10-16T02:02:11;99816.94;;;13.36;100.00
20455;BME280;10386;54.314;10.022;2022-10-16T02:04:44;99811.03;;;13.41;100.00
20455;BME280;10386;54.314;10.022;2022-10-16T02:07:13;99818.34;;;13.40;100.00
20455;BME280;10386;54.314;10.022;2022-10-16T02:09:40;99807.03;;;13.35;100.00
20455;BME280;10386;54.314;10.022;2022-10-16T02:12:33;99811.25;;;13.30;100.00
20455;BME280;10386;54.314;10.022;2022-10-16T02:15:02;99811.59;;;13.44;100.00
20455;BME280;10386;54.314;10.022;2022-10-16T02:17:29;99809.63;;;13.37;100.00
20455;BME280;10386;54.314;10.022;2022-10-16T02:19:57;99810.94;;;13.33;100.00
20455;BME280;10386;54.314;10.022;2022-10-16T02:22:31;99822.84;;;13.32;100.00
20455;BME280;10386;54.314;10.022;2022-10-16T02:33:03;99813.47;;;13.44;100.00
20455;BME280;10386;54.314;10.022;2022-10-16T02:35:31;99825.41;;;13.33;100.00
20455;BME280;10386;54.314;10.022;2022-10-16T02:37:59;99846.00;;;13.18;100.00
20455;BME280;10386;54.314;10.022;2022-10-16T02:40:26;99836.72;;;13.38;100.00
20455;BME280;10386;54.314;10.022;2022-10-16T02:42:54;99851.03;;;13.23;100.00
20455;BME280;10386;54.314;10.022;2022-10-16T02:45:22;99842.06;;;13.30;100.00
20455;BME280;10386;54.314;10.022;2022-10-16T02:47:49;99847.72;;;13.19;100.00
20455;BME280;10386;54.314;10.022;2022-10-16T02:50:16;99847.84;;;13.18;100.00
20455;BME280;10386;54.314;10.022;2022-10-16T02:52:43;99841.16;;;13.12;100.00
20455;BME280;10386;54.314;10.022;2022-10-16T02:55:09;99848.75;;;13.09;100.00
20455;BME280;10386;54.314;10.022;2022-10-16T02:57:36;99849.25;;;13.31;100.00
20455;BME280;10386;54.314;10.022;2022-10-16T03:00:04;99850.16;;;13.22;100.00
20455;BME280;10386;54.314;10.022;2022-10-16T03:02:31;99845.56;;;13.23;100.00
20455;BME280;10386;54.314;10.022;2022-10-16T03:04:58;99863.13;;;13.01;100.00
20455;BME280;10386;54.314;10.022;2022-10-16T03:07:24;99857.81;;;13.09;100.00
20455;BME280;10386;54.314;10.022;2022-10-16T03:09:52;99853.34;;;13.08;100.00
20455;BME280;10386;54.314;10.022;2022-10-16T03:12:18;99857.09;;;13.07;100.00
20455;BME280;10386;54.314;10.022;2022-10-16T03:14:45;99854.38;;;12.98;100.00
20455;BME280;10386;54.314;10.022;2022-10-16T03:17:12;99856.69;;;13.02;100.00
20455;BME280;10386;54.314;10.022;2022-10-16T03:19:39;99863.25;;;13.00;100.00
20455;BME280;10386;54.314;10.022;2022-10-16T03:22:06;99858.41;;;12.94;100.00
20455;BME280;10386;54.314;10.022;2022-10-16T03:24:32;99860.28;;;12.93;100.00
20455;BME280;10386;54.314;10.022;2022-10-16T03:26:59;99859.84;;;12.88;100.00
20455;BME280;10386;54.314;10.022;2022-10-16T03:29:26;99859.41;;;12.93;100.00
20455;BME280;10386;54.314;10.022;2022-10-16T03:31:54;99859.56;;;12.82;100.00
20455;BME280;10386;54.314;10.022;2022-10-16T03:34:20;99859.00;;;12.78;100.00
20455;BME280;10386;54.314;10.022;2022-10-16T03:36:47;99872.34;;;12.81;100.00
20455;BME280;10386;54.314;10.022;2022-10-16T03:39:14;99880.63;;;12.80;100.00
20455;BME280;10386;54.314;10.022;2022-10-16T03:41:41;99874.06;;;12.82;100.00
20455;BME280;10386;54.314;10.022;2022-10-16T03:44:07;99876.91;;;12.81;100.00
20455;BME280;10386;54.314;10.022;2022-10-16T03:46:34;99877.34;;;12.76;100.00
20455;BME280;10386;54.314;10.022;2022-10-16T03:49:01;99879.50;;;12.92;100.00
20455;BME280;10386;54.314;10.022;2022-10-16T03:51:32;99886.66;;;12.83;100.00
20455;BME280;10386;54.314;10.022;2022-10-16T03:53:59;99885.38;;;12.68;100.00
20455;BME280;10386;54.314;10.022;2022-10-16T03:56:26;99898.28;;;12.76;100.00
20455;BME280;10386;54.314;10.022;2022-10-16T03:58:52;99900.16;;;12.75;100.00
20455;BME280;10386;54.314;10.022;2022-10-16T04:01:19;99901.88;;;12.67;100.00
20455;BME280;10386;54.314;10.022;2022-10-16T04:03:45;99902.59;;;12.59;100.00
20455;BME280;10386;54.314;10.022;2022-10-16T04:06:12;99903.31;;;12.71;100.00
20455;BME280;10386;54.314;10.022;2022-10-16T04:08:39;99915.06;;;12.62;100.00
20455;BME280;10386;54.314;10.022;2022-10-16T04:11:08;99913.31;;;12.70;100.00
20455;BME280;10386;54.314;10.022;2022-10-16T04:13:35;99913.59;;;12.67;100.00
20455;BME280;10386;54.314;10.022;2022-10-16T04:16:01;99909.59;;;12.81;100.00
20455;BME280;10386;54.314;10.022;2022-10-16T04:18:28;99919.47;;;12.72;100.00
20455;BME280;10386;54.314;10.022;2022-10-16T04:20:55;99927.94;;;12.69;100.00
20455;BME280;10386;54.314;10.022;2022-10-16T04:23:22;99936.28;;;12.77;100.00
20455;BME280;10386;54.314;10.022;2022-10-16T04:25:50;99940.56;;;12.70;100.00
20455;BME280;10386;54.314;10.022;2022-10-16T04:28:17;99937.97;;;12.59;100.00
20455;BME280;10386;54.314;10.022;2022-10-16T04:30:43;99948.16;;;12.57;100.00
20455;BME280;10386;54.314;10.022;2022-10-16T04:33:10;99934.38;;;12.68;100.00
20455;BME280;10386;54.314;10.022;2022-10-16T04:35:37;99946.88;;;12.71;100.00
20455;BME280;10386;54.314;10.022;2022-10-16T04:38:04;99953.16;;;12.71;100.00
20455;BME280;10386;54.314;10.022;2022-10-16T04:40:30;99971.38;;;12.61;100.00
20455;BME280;10386;54.314;10.022;2022-10-16T04:43:03;99972.81;;;12.65;100.00
20455;BME280;10386;54.314;10.022;2022-10-16T04:45:30;99960.31;;;12.72;100.00
20455;BME280;10386;54.314;10.022;2022-10-16T04:47:58;99980.41;;;12.71;100.00
20455;BME280;10386;54.314;10.022;2022-10-16T04:50:25;99973.53;;;12.86;100.00
20455;BME280;10386;54.314;10.022;2022-10-16T04:52:52;99990.72;;;12.87;100.00
20455;BME280;10386;54.314;10.022;2022-10-16T04:55:18;99989.16;;;12.84;100.00
20455;BME280;10386;54.314;10.022;2022-10-16T04:57:45;99998.91;;;12.87;100.00
20455;BME280;10386;54.314;10.022;2022-10-16T05:00:12;100003.81;;;12.93;100.00
20455;BME280;10386;54.314;10.022;2022-10-16T05:02:39;100011.13;;;12.92;100.00
20455;BME280;10386;54.314;10.022;2022-10-16T05:05:06;100022.13;;;12.91;100.00
20455;BME280;10386;54.314;10.022;2022-10-16T05:07:33;100021.28;;;13.00;100.00
20455;BME280;10386;54.314;10.022;2022-10-16T05:10:00;100033.66;;;12.94;100.00
20455;BME280;10386;54.314;10.022;2022-10-16T05:12:26;100039.53;;;12.99;100.00
20455;BME280;10386;54.314;10.022;2022-10-16T05:14:53;100034.19;;;12.88;100.00
20455;BME280;10386;54.314;10.022;2022-10-16T05:17:25;100032.31;;;13.08;100.00
20455;BME280;10386;54.314;10.022;2022-10-16T05:19:52;100044.25;;;12.97;100.00
20455;BME280;10386;54.314;10.022;2022-10-16T05:22:19;100047.41;;;13.02;100.00
20455;BME280;10386;54.314;10.022;2022-10-16T05:24:46;100050.13;;;13.02;100.00
20455;BME280;10386;54.314;10.022;2022-10-16T05:27:12;100049.84;;;13.05;100.00
20455;BME280;10386;54.314;10.022;2022-10-16T05:29:46;100065.91;;;13.08;100.00
20455;BME280;10386;54.314;10.022;2022-10-16T05:32:14;100087.97;;;12.96;100.00
20455;BME280;10386;54.314;10.022;2022-10-16T05:34:41;100097.47;;;13.01;100.00
20455;BME280;10386;54.314;10.022;2022-10-16T05:37:08;100094.00;;;13.09;100.00
20455;BME280;10386;54.314;10.022;2022-10-16T05:39:35;100107.19;;;13.04;100.00
20455;BME280;10386;54.314;10.022;2022-10-16T05:42:04;100111.50;;;13.06;100.00
20455;BME280;10386;54.314;10.022;2022-10-16T05:44:31;100125.28;;;12.95;100.00
20455;BME280;10386;54.314;10.022;2022-10-16T05:47:03;100123.97;;;13.09;100.00
20455;BME280;10386;54.314;10.022;2022-10-16T05:49:29;100133.03;;;13.09;100.00
20455;BME280;10386;54.314;10.022;2022-10-16T05:51:56;100130.75;;;13.14;100.00
20455;BME280;10386;54.314;10.022;2022-10-16T05:54:23;100140.22;;;13.20;100.00
20455;BME280;10386;54.314;10.022;2022-10-16T05:56:49;100148.09;;;13.32;100.00
20455;BME280;10386;54.314;10.022;2022-10-16T05:59:16;100148.22;;;13.12;100.00
20455;BME280;10386;54.314;10.022;2022-10-16T06:01:43;100150.09;;;13.11;100.00
20455;BME280;10386;54.314;10.022;2022-10-16T06:04:10;100172.34;;;13.16;100.00
20455;BME280;10386;54.314;10.022;2022-10-16T06:06:37;100168.19;;;13.12;100.00
20455;BME280;10386;54.314;10.022;2022-10-16T06:09:04;100164.19;;;13.26;100.00
20455;BME280;10386;54.314;10.022;2022-10-16T06:11:32;100171.06;;;13.20;100.00
20455;BME280;10386;54.314;10.022;2022-10-16T06:14:01;100179.63;;;13.16;100.00
20455;BME280;10386;54.314;10.022;2022-10-16T06:16:29;100180.81;;;13.13;100.00
20455;BME280;10386;54.314;10.022;2022-10-16T06:18:55;100183.56;;;13.23;100.00
20455;BME280;10386;54.314;10.022;2022-10-16T06:21:24;100191.13;;;13.19;100.00
20455;BME280;10386;54.314;10.022;2022-10-16T06:23:52;100201.50;;;13.35;100.00
20455;BME280;10386;54.314;10.022;2022-10-16T06:26:21;100203.03;;;13.18;100.00
20455;BME280;10386;54.314;10.022;2022-10-16T06:28:49;100209.38;;;13.28;100.00
20455;BME280;10386;54.314;10.022;2022-10-16T06:31:17;100224.97;;;13.17;100.00
20455;BME280;10386;54.314;10.022;2022-10-16T06:33:44;100221.00;;;13.30;100.00
20455;BME280;10386;54.314;10.022;2022-10-16T06:36:15;100240.78;;;13.32;100.00
20455;BME280;10386;54.314;10.022;2022-10-16T06:38:43;100238.38;;;13.39;100.00
20455;BME280;10386;54.314;10.022;2022-10-16T06:41:12;100258.75;;;13.35;100.00
20455;BME280;10386;54.314;10.022;2022-10-16T06:43:39;100263.03;;;13.28;100.00
20455;BME280;10386;54.314;10.022;2022-10-16T06:46:09;100271.66;;;13.42;100.00
20455;BME280;10386;54.314;10.022;2022-10-16T06:48:36;100270.25;;;13.57;100.00
20455;BME280;10386;54.314;10.022;2022-10-16T06:51:05;100298.25;;;13.59;100.00
20455;BME280;10386;54.314;10.022;2022-10-16T06:53:34;100307.59;;;13.57;100.00
20455;BME280;10386;54.314;10.022;2022-10-16T06:56:25;100318.25;;;13.78;100.00
20455;BME280;10386;54.314;10.022;2022-10-16T06:58:53;100316.81;;;13.75;100.00
20455;BME280;10386;54.314;10.022;2022-10-16T07:01:22;100330.59;;;13.82;100.00
20455;BME280;10386;54.314;10.022;2022-10-16T07:03:49;100328.91;;;13.91;100.00
20455;BME280;10386;54.314;10.022;2022-10-16T07:06:19;100347.00;;;13.92;100.00
20455;BME280;10386;54.314;10.022;2022-10-16T07:08:46;100349.00;;;13.99;100.00
20455;BME280;10386;54.314;10.022;2022-10-16T07:11:16;100369.66;;;13.83;100.00
20455;BME280;10386;54.314;10.022;2022-10-16T07:13:44;100369.97;;;13.80;100.00
20455;BME280;10386;54.314;10.022;2022-10-16T07:16:20;100384.75;;;13.87;100.00
20455;BME280;10386;54.314;10.022;2022-10-16T07:18:47;100390.38;;;13.95;100.00
20455;BME280;10386;54.314;10.022;2022-10-16T07:21:18;100412.78;;;13.89;100.00
20455;BME280;10386;54.314;10.022;2022-10-16T07:23:53;100422.97;;;13.96;100.00
20455;BME280;10386;54.314;10.022;2022-10-16T07:26:20;100425.97;;;13.93;100.00
20455;BME280;10386;54.314;10.022;2022-10-16T07:28:48;100443.50;;;13.91;100.00
20455;BME280;10386;54.314;10.022;2022-10-16T07:31:16;100444.00;;;14.05;100.00
20455;BME280;10386;54.314;10.022;2022-10-16T07:33:44;100455.59;;;13.98;100.00
20455;BME280;10386;54.314;10.022;2022-10-16T07:36:12;100458.66;;;14.04;100.00
20455;BME280;10386;54.314;10.022;2022-10-16T07:38:42;100462.50;;;14.02;100.00
20455;BME280;10386;54.314;10.022;2022-10-16T07:41:11;100457.19;;;14.10;100.00
20455;BME280;10386;54.314;10.022;2022-10-16T07:43:38;100451.38;;;14.33;100.00
20455;BME280;10386;54.314;10.022;2022-10-16T07:46:06;100460.59;;;14.42;100.00
20455;BME280;10386;54.314;10.022;2022-10-16T07:48:33;100466.94;;;14.52;100.00
20455;BME280;10386;54.314;10.022;2022-10-16T07:51:03;100462.19;;;14.73;100.00
20455;BME280;10386;54.314;10.022;2022-10-16T07:53:31;100473.13;;;14.92;100.00
20455;BME280;10386;54.314;10.022;2022-10-16T07:56:03;100483.75;;;14.95;100.00
20455;BME280;10386;54.314;10.022;2022-10-16T07:58:31;100496.13;;;14.70;100.00
20455;BME280;10386;54.314;10.022;2022-10-16T08:00:58;100511.81;;;14.78;100.00
20455;BME280;10386;54.314;10.022;2022-10-16T08:03:25;100520.00;;;14.68;100.00
20455;BME280;10386;54.314;10.022;2022-10-16T08:05:52;100534.53;;;14.78;100.00
20455;BME280;10386;54.314;10.022;2022-10-16T08:08:19;100539.00;;;15.08;100.00
20455;BME280;10386;54.314;10.022;2022-10-16T08:10:49;100545.75;;;15.22;100.00
20455;BME280;10386;54.314;10.022;2022-10-16T08:13:20;100560.19;;;15.34;100.00
20455;BME280;10386;54.314;10.022;2022-10-16T08:15:47;100572.84;;;15.35;100.00
20455;BME280;10386;54.314;10.022;2022-10-16T08:18:14;100594.72;;;15.44;100.00
20455;BME280;10386;54.314;10.022;2022-10-16T08:20:42;100588.75;;;15.77;100.00
20455;BME280;10386;54.314;10.022;2022-10-16T08:23:11;100611.38;;;15.70;100.00
20455;BME280;10386;54.314;10.022;2022-10-16T08:25:38;100613.84;;;15.63;100.00
20455;BME280;10386;54.314;10.022;2022-10-16T08:28:07;100631.41;;;15.70;100.00
20455;BME280;10386;54.314;10.022;2022-10-16T08:30:34;100634.41;;;15.86;100.00
20455;BME280;10386;54.314;10.022;2022-10-16T08:33:01;100651.50;;;16.07;100.00
20455;BME280;10386;54.314;10.022;2022-10-16T08:35:28;100674.34;;;15.79;100.00
20455;BME280;10386;54.314;10.022;2022-10-16T08:37:55;100682.13;;;15.74;100.00
20455;BME280;10386;54.314;10.022;2022-10-16T08:40:30;100686.56;;;16.04;100.00
20455;BME280;10386;54.314;10.022;2022-10-16T08:43:04;100711.91;;;16.06;100.00
20455;BME280;10386;54.314;10.022;2022-10-16T08:48:30;100724.47;;;15.70;100.00
20455;BME280;10386;54.314;10.022;2022-10-16T08:51:02;100728.19;;;16.07;100.00
20455;BME280;10386;54.314;10.022;2022-10-16T08:53:56;100732.66;;;16.08;100.00
20455;BME280;10386;54.314;10.022;2022-10-16T08:56:25;100740.19;;;15.97;100.00
20455;BME280;10386;54.314;10.022;2022-10-16T08:58:53;100757.00;;;16.30;100.00
20455;BME280;10386;54.314;10.022;2022-10-16T09:01:39;100751.09;;;16.35;100.00
20455;BME280;10386;54.314;10.022;2022-10-16T09:06:45;100786.84;;;16.24;100.00
20455;BME280;10386;54.314;10.022;2022-10-16T09:09:58;100785.13;;;16.51;100.00
20455;BME280;10386;54.314;10.022;2022-10-16T09:12:10;100803.28;;;16.52;100.00
20455;BME280;10386;54.314;10.022;2022-10-16T09:14:53;100803.13;;;16.63;100.00
20455;BME280;10386;54.314;10.022;2022-10-16T09:17:41;100812.53;;;16.51;100.00
20455;BME280;10386;54.314;10.022;2022-10-16T09:23:10;100825.28;;;16.88;100.00
20455;BME280;10386;54.314;10.022;2022-10-16T09:25:39;100838.72;;;16.82;100.00
20455;BME280;10386;54.314;10.022;2022-10-16T09:28:08;100850.91;;;16.51;100.00
20455;BME280;10386;54.314;10.022;2022-10-16T09:30:37;100849.38;;;16.85;100.00
20455;BME280;10386;54.314;10.022;2022-10-16T09:33:04;100866.84;;;16.84;100.00
20455;BME280;10386;54.314;10.022;2022-10-16T09:35:38;100880.34;;;16.59;100.00
20455;BME280;10386;54.314;10.022;2022-10-16T09:38:06;100867.19;;;16.62;100.00
20455;BME280;10386;54.314;10.022;2022-10-16T09:40:34;100893.59;;;16.63;100.00
20455;BME280;10386;54.314;10.022;2022-10-16T09:43:25;100887.94;;;16.83;100.00
20455;BME280;10386;54.314;10.022;2022-10-16T09:48:43;100903.22;;;16.95;100.00
20455;BME280;10386;54.314;10.022;2022-10-16T09:51:19;100917.38;;;16.81;100.00
20455;BME280;10386;54.314;10.022;2022-10-16T09:53:46;100932.56;;;16.57;100.00
20455;BME280;10386;54.314;10.022;2022-10-16T09:56:28;100930.09;;;16.35;100.00
20455;BME280;10386;54.314;10.022;2022-10-16T09:58:58;100935.53;;;16.26;100.00
20455;BME280;10386;54.314;10.022;2022-10-16T10:01:37;100949.28;;;16.35;100.00
20455;BME280;10386;54.314;10.022;2022-10-16T10:04:06;100951.84;;;16.27;100.00
20455;BME280;10386;54.314;10.022;2022-10-16T10:11:59;100965.66;;;16.26;100.00
20455;BME280;10386;54.314;10.022;2022-10-16T10:20:01;100955.47;;;16.37;100.00
20455;BME280;10386;54.314;10.022;2022-10-16T10:22:32;100968.28;;;16.27;100.00
20455;BME280;10386;54.314;10.022;2022-10-16T10:28:15;100981.44;;;16.71;100.00
20455;BME280;10386;54.314;10.022;2022-10-16T10:38:48;100994.16;;;16.63;100.00
20455;BME280;10386;54.314;10.022;2022-10-16T10:42:05;100988.66;;;16.53;100.00
20455;BME280;10386;54.314;10.022;2022-10-16T10:45:01;100996.31;;;16.78;100.00
20455;BME280;10386;54.314;10.022;2022-10-16T10:50:20;100998.47;;;16.84;100.00
20455;BME280;10386;54.314;10.022;2022-10-16T10:55:33;101020.53;;;17.20;100.00
20455;BME280;10386;54.314;10.022;2022-10-16T11:06:12;101041.22;;;17.15;100.00
20455;BME280;10386;54.314;10.022;2022-10-16T11:08:46;101059.41;;;17.06;100.00
20455;BME280;10386;54.314;10.022;2022-10-16T11:11:22;101064.16;;;16.95;100.00
20455;BME280;10386;54.314;10.022;2022-10-16T11:16:21;101080.63;;;17.04;100.00
20455;BME280;10386;54.314;10.022;2022-10-16T11:18:59;101094.06;;;17.17;100.00
20455;BME280;10386;54.314;10.022;2022-10-16T11:21:36;101096.69;;;17.37;100.00
20455;BME280;10386;54.314;10.022;2022-10-16T11:24:21;101098.25;;;17.21;100.00
20455;BME280;10386;54.314;10.022;2022-10-16T11:26:51;101112.84;;;17.12;100.00
20455;BME280;10386;54.314;10.022;2022-10-16T11:29:24;101104.63;;;17.12;100.00
20455;BME280;10386;54.314;10.022;2022-10-16T11:32:04;101118.47;;;17.01;100.00
20455;BME280;10386;54.314;10.022;2022-10-16T11:34:36;101120.22;;;17.02;100.00
20455;BME280;10386;54.314;10.022;2022-10-16T11:37:19;101140.28;;;17.12;100.00
20455;BME280;10386;54.314;10.022;2022-10-16T11:39:46;101141.88;;;17.14;100.00
20455;BME280;10386;54.314;10.022;2022-10-16T11:48:23;101149.09;;;17.15;100.00
20455;BME280;10386;54.314;10.022;2022-10-16T11:51:07;101159.72;;;16.90;100.00
20455;BME280;10386;54.314;10.022;2022-10-16T11:57:08;101186.63;;;17.05;100.00
20455;BME280;10386;54.314;10.022;2022-10-16T12:02:50;101203.31;;;16.93;100.00
20455;BME280;10386;54.314;10.022;2022-10-16T12:08:11;101202.31;;;16.94;100.00
20455;BME280;10386;54.314;10.022;2022-10-16T12:10:41;101204.34;;;16.92;100.00
20455;BME280;10386;54.314;10.022;2022-10-16T12:13:30;101232.00;;;17.19;100.00
20455;BME280;10386;54.314;10.022;2022-10-16T12:18:40;101233.75;;;17.20;100.00
20455;BME280;10386;54.314;10.022;2022-10-16T12:21:08;101223.34;;;17.14;100.00
20455;BME280;10386;54.314;10.022;2022-10-16T12:23:47;101226.34;;;17.11;100.00
20455;BME280;10386;54.314;10.022;2022-10-16T12:26:24;101246.59;;;17.29;100.00
20455;BME280;10386;54.314;10.022;2022-10-16T12:28:51;101244.09;;;17.07;100.00
20455;BME280;10386;54.314;10.022;2022-10-16T12:31:21;101253.44;;;16.95;100.00
20455;BME280;10386;54.314;10.022;2022-10-16T12:33:58;101270.41;;;17.19;100.00
20455;BME280;10386;54.314;10.022;2022-10-16T12:36:35;101257.63;;;16.99;100.00
20455;BME280;10386;54.314;10.022;2022-10-16T12:39:24;101284.75;;;16.92;100.00
20455;BME280;10386;54.314;10.022;2022-10-16T12:43:24;101304.97;;;17.31;100.00
20455;BME280;10386;54.314;10.022;2022-10-16T14:44:42;101537.94;;;16.52;100.00
20455;BME280;10386;54.314;10.022;2022-10-16T14:47:17;101541.44;;;16.43;100.00
20455;BME280;10386;54.314;10.022;2022-10-16T15:27:01;101590.53;;;15.58;100.00
20455;BME280;10386;54.314;10.022;2022-10-16T15:29:29;101585.16;;;15.57;100.00
20455;BME280;10386;54.314;10.022;2022-10-16T15:59:07;101632.56;;;14.89;100.00
20455;BME280;10386;54.314;10.022;2022-10-16T16:01:56;101634.00;;;14.82;100.00
20455;BME280;10386;54.314;10.022;2022-10-16T18:48:25;101520.78;;;12.39;100.00
20455;BME280;10386;54.314;10.022;2022-10-16T19:25:13;101466.25;;;12.15;100.00
20455;BME280;10386;54.314;10.022;2022-10-16T19:56:19;101425.84;;;11.82;100.00
20455;BME280;10386;54.314;10.022;2022-10-16T19:59:02;101424.47;;;11.89;100.00
20455;BME280;10386;54.314;10.022;2022-10-16T20:30:50;101388.88;;;11.66;100.00
20455;BME280;10386;54.314;10.022;2022-10-16T21:10:21;101336.66;;;11.47;100.00
20455;BME280;10386;54.314;10.022;2022-10-16T21:27:16;101315.91;;;11.46;100.00
20455;BME280;10386;54.314;10.022;2022-10-16T21:30:22;101316.19;;;11.41;100.00
20455;BME280;10386;54.314;10.022;2022-10-16T23:02:34;101280.66;;;11.18;100.00
20455;BME280;10386;54.314;10.022;2022-10-16T23:53:00;101241.75;;;10.77;100.00
